createdAt,value
2023-04-01T00:01:17.728Z,-0.10
2023-04-01T00:03:45.542Z,-0.10
2023-04-01T00:06:18.651Z,-0.10
2023-04-01T00:08:46.140Z,-0.20
2023-04-01T00:11:13.162Z,-0.20
2023-04-01T00:13:40.217Z,-0.20
2023-04-01T00:16:19.933Z,-0.20
2023-04-01T00:18:48.518Z,-0.30
2023-04-01T00:21:16.285Z,-0.30
2023-04-01T00:23:43.291Z,-0.30
2023-04-01T00:26:10.374Z,-0.30
2023-04-01T00:28:38.462Z,-0.30
2023-04-01T00:31:07.470Z,-0.30
2023-04-01T00:33:34.612Z,-0.30
2023-04-01T00:36:13.569Z,-0.40
2023-04-01T00:38:42.547Z,-0.40
2023-04-01T00:41:15.175Z,-0.40
2023-04-01T00:43:48.075Z,-0.50
2023-04-01T00:46:15.189Z,-0.50
2023-04-01T00:48:46.144Z,-0.50
2023-04-01T00:51:21.278Z,-0.50
2023-04-01T00:53:51.925Z,-0.50
2023-04-01T00:56:23.639Z,-0.50
2023-04-01T00:59:09.572Z,-0.50
2023-04-01T01:01:37.212Z,-0.60
2023-04-01T01:04:04.634Z,-0.60
2023-04-01T01:07:13.355Z,-0.60
2023-04-01T01:10:13.595Z,-0.60
2023-04-01T01:12:59.852Z,-0.60
2023-04-01T01:15:36.889Z,-0.60
2023-04-01T01:18:44.969Z,-0.70
2023-04-01T01:21:21.811Z,-0.70
2023-04-01T01:23:51.527Z,-0.70
2023-04-01T01:26:41.158Z,-0.70
2023-04-01T01:29:45.020Z,-0.80
2023-04-01T01:32:39.463Z,-0.80
2023-04-01T01:35:12.311Z,-0.80
2023-04-01T01:37:42.137Z,-0.80
2023-04-01T01:40:12.535Z,-0.80
2023-04-01T01:42:45.560Z,-0.80
2023-04-01T01:45:15.873Z,-0.80
2023-04-01T01:47:43.770Z,-0.80
2023-04-01T01:50:12.601Z,-0.80
2023-04-01T01:52:39.451Z,-0.90
2023-04-01T01:55:31.390Z,-0.90
2023-04-01T01:58:18.772Z,-0.90
2023-04-01T02:00:56.926Z,-0.90
2023-04-01T02:03:27.203Z,-0.90
2023-04-01T02:05:58.115Z,-0.90
2023-04-01T02:08:54.189Z,-0.90
2023-04-01T02:11:45.144Z,-0.90
2023-04-01T02:14:18.944Z,-0.90
2023-04-01T02:16:54.949Z,-0.90
2023-04-01T02:19:44.450Z,-0.90
2023-04-01T02:22:17.471Z,-1.00
2023-04-01T02:24:46.415Z,-1.00
2023-04-01T02:27:13.543Z,-1.00
2023-04-01T02:29:40.697Z,-1.00
2023-04-01T02:32:10.351Z,-1.00
2023-04-01T02:34:38.031Z,-1.00
2023-04-01T02:37:05.462Z,-1.00
2023-04-01T02:39:32.586Z,-1.00
2023-04-01T02:41:59.411Z,-1.00
2023-04-01T02:44:26.281Z,-1.00
2023-04-01T02:46:53.946Z,-1.00
2023-04-01T02:49:20.918Z,-1.00
2023-04-01T02:51:48.013Z,-1.00
2023-04-01T02:54:14.916Z,-0.90
2023-04-01T02:56:42.724Z,-1.00
2023-04-01T02:59:09.559Z,-1.00
2023-04-01T03:01:36.515Z,-0.90
2023-04-01T03:04:03.673Z,-1.00
2023-04-01T03:06:30.529Z,-1.00
2023-04-01T03:08:57.636Z,-0.90
2023-04-01T03:11:24.625Z,-0.90
2023-04-01T03:13:51.576Z,-0.90
2023-04-01T03:16:18.426Z,-1.00
2023-04-01T03:18:45.419Z,-1.00
2023-04-01T03:21:21.467Z,-1.00
2023-04-01T03:23:48.526Z,-1.00
2023-04-01T03:26:15.963Z,-1.00
2023-04-01T03:28:43.700Z,-1.00
2023-04-01T03:31:11.212Z,-1.00
2023-04-01T03:33:44.225Z,-1.00
2023-04-01T03:36:13.607Z,-1.00
2023-04-01T03:38:44.768Z,-1.00
2023-04-01T03:41:16.371Z,-1.00
2023-04-01T03:43:44.178Z,-1.00
2023-04-01T03:46:11.335Z,-1.00
2023-04-01T03:48:38.335Z,-1.00
2023-04-01T03:51:09.289Z,-1.00
2023-04-01T03:53:36.617Z,-0.90
2023-04-01T03:56:09.495Z,-1.00
2023-04-01T03:58:37.847Z,-1.00
2023-04-01T04:01:16.866Z,-1.00
2023-04-01T04:03:45.200Z,-0.90
2023-04-01T04:06:13.890Z,-0.90
2023-04-01T04:08:41.206Z,-0.90
2023-04-01T04:11:08.835Z,-0.90
2023-04-01T04:13:38.653Z,-0.90
2023-04-01T04:16:05.933Z,-1.00
2023-04-01T04:18:34.270Z,-0.90
2023-04-01T04:21:01.208Z,-0.90
2023-04-01T04:23:29.367Z,-0.90
2023-04-01T04:26:06.400Z,-0.90
2023-04-01T04:28:34.218Z,-0.90
2023-04-01T04:31:01.708Z,-0.80
2023-04-01T04:33:29.050Z,-0.80
2023-04-01T04:35:57.627Z,-0.80
2023-04-01T04:38:24.818Z,-0.80
2023-04-01T04:40:52.104Z,-0.80
2023-04-01T04:43:20.036Z,-0.80
2023-04-01T04:45:47.320Z,-0.80
2023-04-01T04:48:19.620Z,-0.80
2023-04-01T04:50:47.945Z,-0.80
2023-04-01T04:53:16.273Z,-0.80
2023-04-01T04:55:47.360Z,-0.70
2023-04-01T04:58:32.004Z,-0.70
2023-04-01T05:01:00.045Z,-0.70
2023-04-01T05:03:31.206Z,-0.60
2023-04-01T05:05:58.285Z,-0.60
2023-04-01T05:08:25.190Z,-0.60
2023-04-01T05:10:52.383Z,-0.60
2023-04-01T05:13:19.262Z,-0.60
2023-04-01T05:15:47.955Z,-0.60
2023-04-01T05:18:15.000Z,-0.50
2023-04-01T05:20:47.882Z,-0.50
2023-04-01T05:23:15.006Z,-0.40
2023-04-01T05:25:41.891Z,-0.40
2023-04-01T05:28:09.201Z,-0.40
2023-04-01T05:30:36.074Z,-0.30
2023-04-01T05:33:38.665Z,-0.20
2023-04-01T05:36:17.260Z,-0.20
2023-04-01T05:38:46.687Z,-0.20
2023-04-01T05:41:14.790Z,-0.10
2023-04-01T05:43:44.792Z,-0.10
2023-04-01T05:46:32.921Z,-0.10
2023-04-01T05:49:08.959Z,0.00
2023-04-01T05:51:36.213Z,0.00
2023-04-01T05:54:04.832Z,0.00
2023-04-01T05:56:32.117Z,0.10
2023-04-01T05:58:59.817Z,0.10
2023-04-01T06:01:26.849Z,0.10
2023-04-01T06:03:54.105Z,0.20
2023-04-01T06:06:27.467Z,0.20
2023-04-01T06:09:16.217Z,0.30
2023-04-01T06:12:08.200Z,0.30
2023-04-01T06:15:05.760Z,0.30
2023-04-01T06:17:51.351Z,0.40
2023-04-01T06:20:51.837Z,0.40
2023-04-01T06:23:42.362Z,0.50
2023-04-01T06:26:37.802Z,0.50
2023-04-01T06:29:16.619Z,0.60
2023-04-01T06:32:02.334Z,0.60
2023-04-01T06:34:53.403Z,0.60
2023-04-01T06:37:26.915Z,0.70
2023-04-01T06:40:24.464Z,0.70
2023-04-01T06:43:13.786Z,0.80
2023-04-01T06:46:21.644Z,0.80
2023-04-01T06:49:22.676Z,0.80
2023-04-01T06:52:24.801Z,0.90
2023-04-01T06:55:36.761Z,0.90
2023-04-01T06:58:27.668Z,1.00
2023-04-01T07:00:59.699Z,1.00
2023-04-01T07:03:52.578Z,1.10
2023-04-01T07:06:29.881Z,1.10
2023-04-01T07:09:03.480Z,1.20
2023-04-01T07:11:54.549Z,1.20
2023-04-01T07:14:42.968Z,1.20
2023-04-01T07:17:25.757Z,1.20
2023-04-01T07:20:06.626Z,1.20
2023-04-01T07:22:37.718Z,1.30
2023-04-01T07:25:36.641Z,1.30
2023-04-01T07:28:41.700Z,1.40
2023-04-01T07:31:31.386Z,1.40
2023-04-01T07:34:06.447Z,1.50
2023-04-01T07:36:38.433Z,1.50
2023-04-01T07:39:41.808Z,1.60
2023-04-01T07:42:22.146Z,1.60
2023-04-01T07:45:01.276Z,1.60
2023-04-01T07:47:43.545Z,1.60
2023-04-01T07:50:18.708Z,1.60
2023-04-01T07:53:11.297Z,1.70
2023-04-01T07:56:02.840Z,1.70
2023-04-01T07:58:51.260Z,1.70
2023-04-01T08:02:07.356Z,1.80
2023-04-01T08:04:53.651Z,1.80
2023-04-01T08:07:26.713Z,1.90
2023-04-01T08:10:42.055Z,1.90
2023-04-01T08:14:04.151Z,2.00
2023-04-01T08:17:08.886Z,2.00
2023-04-01T08:20:09.368Z,2.10
2023-04-01T08:23:09.391Z,2.10
2023-04-01T08:25:44.052Z,2.20
2023-04-01T08:28:26.919Z,2.20
2023-04-01T08:31:01.571Z,2.20
2023-04-01T08:33:31.914Z,2.20
2023-04-01T08:36:20.317Z,2.30
2023-04-01T08:39:41.895Z,2.30
2023-04-01T08:42:41.969Z,2.30
2023-04-01T08:45:17.391Z,2.30
2023-04-01T08:48:09.866Z,2.30
2023-04-01T08:51:08.810Z,2.30
2023-04-01T08:53:56.482Z,2.40
2023-04-01T08:56:49.005Z,2.40
2023-04-01T08:59:33.104Z,2.50
2023-04-01T09:02:41.512Z,2.60
2023-04-01T09:05:32.599Z,2.70
2023-04-01T09:08:20.638Z,2.80
2023-04-01T09:11:26.902Z,2.80
2023-04-01T09:14:27.907Z,2.80
2023-04-01T09:17:35.477Z,2.80
2023-04-01T09:20:31.894Z,2.90
2023-04-01T09:23:17.772Z,3.00
2023-04-01T09:26:22.478Z,3.00
2023-04-01T09:29:17.072Z,2.90
2023-04-01T09:32:31.753Z,3.00
2023-04-01T09:35:29.888Z,3.00
2023-04-01T09:38:09.974Z,3.10
2023-04-01T09:40:55.793Z,3.10
2023-04-01T09:43:37.995Z,3.10
2023-04-01T09:46:15.852Z,3.30
2023-04-01T09:49:00.721Z,3.30
2023-04-01T09:52:07.370Z,3.40
2023-04-01T09:54:57.763Z,3.40
2023-04-01T09:58:08.230Z,3.40
2023-04-01T10:01:41.435Z,3.50
2023-04-01T10:04:43.263Z,3.60
2023-04-01T10:07:21.820Z,3.60
2023-04-01T10:10:11.703Z,3.50
2023-04-01T10:13:01.381Z,3.50
2023-04-01T10:15:34.854Z,3.50
2023-04-01T10:18:30.812Z,3.50
2023-04-01T10:21:08.055Z,3.60
2023-04-01T10:23:52.956Z,3.70
2023-04-01T10:26:26.867Z,3.80
2023-04-01T10:29:39.879Z,3.80
2023-04-01T10:32:33.797Z,3.80
2023-04-01T10:35:26.018Z,3.80
2023-04-01T10:38:14.812Z,3.80
2023-04-01T10:40:57.753Z,4.00
2023-04-01T10:44:11.490Z,4.10
2023-04-01T10:47:16.820Z,4.30
2023-04-01T10:50:05.436Z,4.30
2023-04-01T10:53:16.886Z,4.30
2023-04-01T10:56:36.584Z,4.30
2023-04-01T10:59:27.919Z,4.40
2023-04-01T11:02:22.125Z,4.30
2023-04-01T11:05:17.678Z,4.30
2023-04-01T11:08:17.208Z,4.30
2023-04-01T11:10:53.642Z,4.40
2023-04-01T11:13:32.971Z,4.50
2023-04-01T11:16:45.710Z,4.50
2023-04-01T11:19:42.740Z,4.70
2023-04-01T11:22:33.391Z,4.60
2023-04-01T11:25:22.759Z,4.50
2023-04-01T11:28:35.121Z,4.30
2023-04-01T11:31:24.641Z,4.00
2023-04-01T11:34:33.326Z,4.00
2023-04-01T11:37:20.996Z,4.00
2023-04-01T11:40:39.808Z,4.00
2023-04-01T11:43:33.712Z,4.10
2023-04-01T11:46:42.513Z,4.20
2023-04-01T11:49:40.470Z,4.20
2023-04-01T11:52:29.724Z,4.20
2023-04-01T11:55:05.748Z,4.10
2023-04-01T11:58:00.610Z,4.00
2023-04-01T12:00:52.741Z,4.00
2023-04-01T12:03:39.286Z,4.10
2023-04-01T12:06:35.422Z,4.00
2023-04-01T12:09:26.345Z,4.00
2023-04-01T12:12:07.516Z,3.90
2023-04-01T12:15:00.384Z,4.00
2023-04-01T12:18:19.929Z,4.20
2023-04-01T12:21:08.086Z,4.10
2023-04-01T12:23:34.934Z,4.10
2023-04-01T12:26:10.548Z,4.10
2023-04-01T12:29:22.655Z,4.20
2023-04-01T12:31:54.296Z,4.40
2023-04-01T12:34:42.815Z,4.30
2023-04-01T12:37:31.219Z,4.30
2023-04-01T12:40:18.201Z,4.40
2023-04-01T12:43:12.787Z,4.50
2023-04-01T12:46:18.738Z,4.30
2023-04-01T12:49:11.767Z,4.30
2023-04-01T12:52:05.088Z,4.50
2023-04-01T12:55:00.884Z,4.70
2023-04-01T12:57:55.298Z,4.70
2023-04-01T13:00:34.401Z,4.80
2023-04-01T13:03:09.771Z,4.80
2023-04-01T13:05:57.658Z,4.70
2023-04-01T13:08:43.336Z,4.70
2023-04-01T13:11:23.517Z,4.60
2023-04-01T13:14:30.832Z,4.70
2023-04-01T13:17:49.579Z,4.70
2023-04-01T13:20:44.442Z,4.70
2023-04-01T13:23:52.553Z,4.90
2023-04-01T13:26:56.315Z,5.10
2023-04-01T13:29:52.971Z,5.20
2023-04-01T13:32:48.133Z,5.20
2023-04-01T13:36:05.345Z,5.10
2023-04-01T13:38:47.065Z,5.00
2023-04-01T13:41:46.000Z,5.00
2023-04-01T13:44:43.021Z,4.70
2023-04-01T13:47:27.892Z,4.70
2023-04-01T13:50:18.958Z,4.80
2023-04-01T13:53:12.842Z,4.90
2023-04-01T13:56:04.608Z,4.90
2023-04-01T13:59:01.483Z,4.80
2023-04-01T14:01:43.574Z,5.00
2023-04-01T14:04:34.518Z,5.20
2023-04-01T14:07:16.837Z,5.20
2023-04-01T14:09:43.689Z,5.40
2023-04-01T14:12:30.628Z,5.60
2023-04-01T14:15:23.216Z,5.60
2023-04-01T14:18:02.443Z,5.60
2023-04-01T14:20:52.949Z,5.50
2023-04-01T14:23:41.262Z,5.60
2023-04-01T14:26:36.671Z,5.60
2023-04-01T14:29:28.320Z,5.60
2023-04-01T14:32:24.880Z,5.70
2023-04-01T14:35:00.441Z,5.60
2023-04-01T14:37:47.433Z,5.70
2023-04-01T14:40:29.461Z,5.80
2023-04-01T14:43:09.527Z,5.70
2023-04-01T14:46:03.749Z,5.70
2023-04-01T14:48:40.323Z,5.50
2023-04-01T14:51:46.784Z,5.60
2023-04-01T14:54:13.561Z,5.60
2023-04-01T14:56:45.886Z,5.80
2023-04-01T14:59:21.690Z,5.90
2023-04-01T15:01:49.214Z,6.10
2023-04-01T15:04:44.227Z,6.30
2023-04-01T15:07:11.242Z,6.60
2023-04-01T15:10:22.075Z,6.20
2023-04-01T15:13:23.607Z,6.20
2023-04-01T15:16:19.390Z,5.90
2023-04-01T15:19:17.237Z,5.90
2023-04-01T15:21:57.357Z,5.90
2023-04-01T15:24:29.135Z,5.90
2023-04-01T15:27:30.493Z,6.00
2023-04-01T15:30:02.406Z,5.90
2023-04-01T15:32:43.504Z,5.90
2023-04-01T15:35:19.293Z,5.90
2023-04-01T15:38:06.455Z,5.60
2023-04-01T15:40:46.829Z,5.50
2023-04-01T15:43:23.111Z,5.60
2023-04-01T15:46:10.468Z,5.40
2023-04-01T15:49:01.344Z,5.50
2023-04-01T15:51:57.533Z,5.70
2023-04-01T15:54:30.346Z,5.60
2023-04-01T15:56:57.120Z,5.50
2023-04-01T16:00:03.748Z,5.50
2023-04-01T16:03:15.028Z,5.30
2023-04-01T16:06:13.122Z,5.10
2023-04-01T16:09:09.661Z,5.00
2023-04-01T16:11:51.083Z,4.80
2023-04-01T16:14:36.550Z,4.70
2023-04-01T16:17:26.241Z,4.80
2023-04-01T16:20:01.015Z,4.80
2023-04-01T16:22:39.201Z,4.90
2023-04-01T16:25:18.859Z,5.10
2023-04-01T16:28:11.433Z,5.30
2023-04-01T16:31:12.132Z,5.40
2023-04-01T16:34:04.951Z,5.50
2023-04-01T16:36:55.257Z,5.50
2023-04-01T16:39:49.659Z,5.60
2023-04-01T16:42:28.151Z,5.80
2023-04-01T16:44:57.751Z,5.80
2023-04-01T16:47:33.713Z,5.90
2023-04-01T16:50:20.992Z,5.90
2023-04-01T16:53:08.951Z,5.80
2023-04-01T16:56:01.720Z,5.80
2023-04-01T16:58:40.762Z,5.70
2023-04-01T17:01:31.601Z,5.40
2023-04-01T17:04:30.109Z,5.00
2023-04-01T17:07:26.107Z,4.60
2023-04-01T17:10:18.345Z,4.20
2023-04-01T17:13:28.443Z,3.80
2023-04-01T17:16:12.601Z,3.50
2023-04-01T17:19:01.194Z,3.40
2023-04-01T17:21:42.887Z,3.30
2023-04-01T17:24:27.672Z,3.20
2023-04-01T17:27:21.336Z,3.10
2023-04-01T17:30:13.185Z,3.00
2023-04-01T17:33:12.807Z,2.80
2023-04-01T17:35:41.229Z,2.80
2023-04-01T17:38:17.589Z,2.80
2023-04-01T17:40:58.722Z,2.80
2023-04-01T17:44:04.116Z,2.60
2023-04-01T17:47:00.814Z,2.60
2023-04-01T17:49:42.898Z,2.50
2023-04-01T17:52:43.252Z,2.50
2023-04-01T17:55:33.703Z,2.40
2023-04-01T17:58:29.394Z,2.30
2023-04-01T18:01:26.686Z,2.20
2023-04-01T18:04:05.683Z,2.20
2023-04-01T18:06:37.391Z,2.20
2023-04-01T18:09:19.423Z,2.10
2023-04-01T18:12:12.643Z,2.10
2023-04-01T18:14:51.298Z,2.10
2023-04-01T18:17:27.569Z,2.10
2023-04-01T18:20:12.688Z,2.10
2023-04-01T18:22:49.584Z,2.00
2023-04-01T18:25:31.134Z,2.00
2023-04-01T18:28:28.633Z,2.00
2023-04-01T18:31:06.856Z,1.90
2023-04-01T18:33:51.995Z,2.00
2023-04-01T18:36:24.336Z,1.90
2023-04-01T18:39:04.021Z,1.90
2023-04-01T18:41:43.555Z,1.90
2023-04-01T18:44:39.336Z,1.80
2023-04-01T18:47:26.522Z,1.70
2023-04-01T18:50:21.718Z,1.70
2023-04-01T18:53:11.058Z,1.70
2023-04-01T18:55:46.458Z,1.70
2023-04-01T18:58:23.335Z,1.70
2023-04-01T19:01:03.485Z,1.70
2023-04-01T19:03:48.270Z,1.70
2023-04-01T19:06:24.785Z,1.70
2023-04-01T19:08:53.008Z,1.70
2023-04-01T19:11:51.638Z,1.60
2023-04-01T19:15:00.388Z,1.60
2023-04-01T19:17:45.203Z,1.60
2023-04-01T19:20:25.571Z,1.60
2023-04-01T19:23:18.618Z,1.50
2023-04-01T19:26:20.430Z,1.50
2023-04-01T19:29:04.277Z,1.50
2023-04-01T19:31:49.069Z,1.50
2023-04-01T19:34:25.822Z,1.50
2023-04-01T19:37:11.224Z,1.40
2023-04-01T19:39:55.648Z,1.40
2023-04-01T19:42:43.366Z,1.40
2023-04-01T19:45:19.105Z,1.40
2023-04-01T19:48:05.522Z,1.30
2023-04-01T19:50:38.548Z,1.30
2023-04-01T19:53:46.777Z,1.30
2023-04-01T19:56:17.673Z,1.30
2023-04-01T19:59:18.951Z,1.30
2023-04-01T20:01:51.675Z,1.20
2023-04-01T20:04:34.426Z,1.20
2023-04-01T20:07:19.072Z,1.20
2023-04-01T20:10:07.947Z,1.20
2023-04-01T20:12:50.891Z,1.10
2023-04-01T20:15:40.468Z,1.10
2023-04-01T20:18:35.135Z,1.10
2023-04-01T20:21:07.607Z,1.10
2023-04-01T20:23:53.769Z,1.10
2023-04-01T20:26:33.340Z,1.00
2023-04-01T20:29:37.783Z,1.00
2023-04-01T20:32:30.617Z,1.00
2023-04-01T20:35:18.112Z,1.00
2023-04-01T20:38:25.227Z,1.00
2023-04-01T20:41:00.199Z,1.00
2023-04-01T20:44:19.092Z,1.00
2023-04-01T20:47:25.440Z,0.90
2023-04-01T20:50:31.683Z,0.90
2023-04-01T20:53:12.464Z,0.90
2023-04-01T20:55:48.581Z,0.90
2023-04-01T20:58:39.617Z,0.90
2023-04-01T21:01:15.279Z,0.90
2023-04-01T21:04:03.900Z,0.90
2023-04-01T21:06:58.366Z,0.90
2023-04-01T21:09:31.009Z,0.80
2023-04-01T21:12:30.698Z,0.80
2023-04-01T21:15:33.632Z,0.80
2023-04-01T21:18:20.330Z,0.80
2023-04-01T21:21:05.296Z,0.80
2023-04-01T21:24:01.146Z,0.80
2023-04-01T21:26:30.679Z,0.80
2023-04-01T21:29:45.401Z,0.80
2023-04-01T21:32:24.989Z,0.80
2023-04-01T21:35:16.545Z,0.80
2023-04-01T21:37:56.928Z,0.80
2023-04-01T21:40:34.341Z,0.80
2023-04-01T21:43:23.976Z,0.70
2023-04-01T21:46:12.567Z,0.70
2023-04-01T21:48:42.432Z,0.70
2023-04-01T21:51:33.761Z,0.70
2023-04-01T21:54:09.008Z,0.70
2023-04-01T21:57:03.731Z,0.70
2023-04-01T21:59:48.381Z,0.70
2023-04-01T22:02:39.633Z,0.70
2023-04-01T22:05:11.122Z,0.70
2023-04-01T22:08:05.418Z,0.70
2023-04-01T22:10:47.998Z,0.70
2023-04-01T22:13:26.080Z,0.70
2023-04-01T22:16:33.236Z,0.70
2023-04-01T22:19:25.312Z,0.70
2023-04-01T22:22:04.132Z,0.70
2023-04-01T22:24:36.567Z,0.70
2023-04-01T22:27:22.167Z,0.70
2023-04-01T22:30:18.150Z,0.70
2023-04-01T22:32:56.146Z,0.70
2023-04-01T22:35:38.298Z,0.70
2023-04-01T22:38:19.462Z,0.70
2023-04-01T22:41:14.717Z,0.70
2023-04-01T22:43:44.291Z,0.70
2023-04-01T22:46:36.699Z,0.70
2023-04-01T22:49:17.546Z,0.70
2023-04-01T22:51:54.472Z,0.70
2023-04-01T22:54:46.363Z,0.60
2023-04-01T22:57:31.568Z,0.70
2023-04-01T23:00:25.629Z,0.70
2023-04-01T23:03:25.947Z,0.70
2023-04-01T23:05:54.252Z,0.70
2023-04-01T23:08:55.990Z,0.70
2023-04-01T23:11:52.795Z,0.70
2023-04-01T23:14:24.280Z,0.70
2023-04-01T23:17:16.969Z,0.60
2023-04-01T23:20:16.315Z,0.70
2023-04-01T23:23:11.125Z,0.70
2023-04-01T23:25:54.991Z,0.70
2023-04-01T23:28:40.284Z,0.70
2023-04-01T23:31:31.840Z,0.70
2023-04-01T23:34:03.345Z,0.70
2023-04-01T23:36:32.578Z,0.70
2023-04-01T23:39:04.616Z,0.70
2023-04-01T23:41:33.461Z,0.70
2023-04-01T23:44:11.521Z,0.70
2023-04-01T23:46:41.413Z,0.70
2023-04-01T23:49:16.837Z,0.60
2023-04-01T23:51:57.988Z,0.60
2023-04-01T23:54:31.118Z,0.60
2023-04-01T23:56:58.925Z,0.60
2023-04-01T23:59:35.830Z,0.60
